createdAt,value
2018-07-23T00:00:47.651Z,33.59
2018-07-23T00:01:47.839Z,33.59
2018-07-23T00:02:48.026Z,30.71
2018-07-23T00:03:48.215Z,29.66
2018-07-23T00:04:48.402Z,29.17
2018-07-23T00:05:48.591Z,29.17
2018-07-23T00:06:48.779Z,28.60
2018-07-23T00:07:48.967Z,28.89
2018-07-23T00:08:49.156Z,30.04
2018-07-23T00:09:49.341Z,30.23
2018-07-23T00:10:49.523Z,30.14
2018-07-23T00:11:49.706Z,30.23
2018-07-23T00:12:49.899Z,29.94
2018-07-23T00:13:50.083Z,30.04
2018-07-23T00:14:50.267Z,30.33
2018-07-23T00:15:50.455Z,30.23
2018-07-23T00:16:50.641Z,30.62
2018-07-23T00:17:50.829Z,30.52
2018-07-23T00:18:51.008Z,30.14
2018-07-23T00:19:51.203Z,30.04
2018-07-23T00:20:51.384Z,30.33
2018-07-23T00:21:51.574Z,29.66
2018-07-23T00:22:51.760Z,28.41
2018-07-23T00:23:51.940Z,27.64
2018-07-23T00:24:52.122Z,26.59
2018-07-23T00:25:52.308Z,26.39
2018-07-23T00:26:52.494Z,26.87
2018-07-23T00:27:52.679Z,26.87
2018-07-23T00:28:52.864Z,26.87
2018-07-23T00:29:53.054Z,27.06
2018-07-23T00:30:53.240Z,26.97
2018-07-23T00:31:53.434Z,26.87
2018-07-23T00:32:53.619Z,26.39
2018-07-23T00:33:53.818Z,27.73
2018-07-23T00:34:54.005Z,27.92
2018-07-23T00:35:54.191Z,28.31
2018-07-23T00:36:54.378Z,28.22
2018-07-23T00:37:54.563Z,28.60
2018-07-23T00:38:54.749Z,30.43
2018-07-23T00:39:54.938Z,33.59
2018-07-23T00:40:55.121Z,33.88
2018-07-23T00:41:55.302Z,34.55
2018-07-23T00:42:55.487Z,35.22
2018-07-23T00:43:55.674Z,35.61
2018-07-23T00:44:55.860Z,36.28
2018-07-23T00:45:56.046Z,37.22
2018-07-23T00:46:56.236Z,37.41
2018-07-23T00:47:56.421Z,36.93
2018-07-23T00:48:56.604Z,36.07
2018-07-23T00:49:56.785Z,34.53
2018-07-23T00:50:56.959Z,32.23
2018-07-23T00:51:57.176Z,29.64
2018-07-23T00:52:57.343Z,28.30
2018-07-23T00:53:57.550Z,26.67
2018-07-23T00:54:57.704Z,25.90
2018-07-23T00:55:57.887Z,25.52
2018-07-23T00:56:58.090Z,25.32
2018-07-23T00:57:58.253Z,24.94
2018-07-23T00:58:58.437Z,24.94
2018-07-23T00:59:58.614Z,24.65
2018-07-23T01:00:58.783Z,24.37
2018-07-23T01:01:58.959Z,24.65
2018-07-23T01:02:59.167Z,24.65
2018-07-23T01:03:59.349Z,24.65
2018-07-23T01:04:59.571Z,24.18
2018-07-23T01:05:59.727Z,23.98
2018-07-23T01:06:59.942Z,23.69
2018-07-23T01:08:00.090Z,24.75
2018-07-23T01:09:00.283Z,25.61
2018-07-23T01:10:00.466Z,25.90
2018-07-23T01:11:00.654Z,26.86
2018-07-23T01:12:00.844Z,28.97
2018-07-23T01:13:01.034Z,29.35
2018-07-23T01:14:01.220Z,29.93
2018-07-23T01:15:01.415Z,30.12
2018-07-23T01:16:01.577Z,31.18
2018-07-23T01:17:01.777Z,32.23
2018-07-23T01:18:01.959Z,33.09
2018-07-23T01:19:02.138Z,33.96
2018-07-23T01:20:02.320Z,34.15
2018-07-23T01:21:02.510Z,34.63
2018-07-23T01:22:02.692Z,35.11
2018-07-23T01:23:02.886Z,35.40
2018-07-23T01:24:03.037Z,35.59
2018-07-23T01:25:03.246Z,36.07
2018-07-23T01:26:03.444Z,37.11
2018-07-23T01:27:03.628Z,38.37
2018-07-23T01:28:03.817Z,38.37
2018-07-23T01:29:03.999Z,37.70
2018-07-23T01:30:04.183Z,37.97
2018-07-23T01:31:04.402Z,37.30
2018-07-23T01:32:04.604Z,37.40
2018-07-23T01:33:04.802Z,37.30
2018-07-23T01:34:04.986Z,37.20
2018-07-23T01:35:05.163Z,37.11
2018-07-23T01:36:05.353Z,36.72
2018-07-23T01:37:05.523Z,36.44
2018-07-23T01:38:05.709Z,35.86
2018-07-23T01:39:05.891Z,35.57
2018-07-23T01:40:06.186Z,35.77
2018-07-23T01:41:06.245Z,36.24
2018-07-23T01:42:06.433Z,36.91
2018-07-23T01:43:06.618Z,37.30
2018-07-23T01:44:06.805Z,35.96
2018-07-23T01:45:07.012Z,34.61
2018-07-23T01:46:07.202Z,34.33
2018-07-23T01:47:07.389Z,34.33
2018-07-23T01:48:07.591Z,34.42
2018-07-23T01:49:07.760Z,34.61
2018-07-23T01:50:07.947Z,34.81
2018-07-23T01:51:08.122Z,34.33
2018-07-23T01:52:08.301Z,33.65
2018-07-23T01:53:08.480Z,33.17
2018-07-23T01:54:08.671Z,33.17
2018-07-23T01:55:08.839Z,33.27
2018-07-23T01:56:09.660Z,33.08
2018-07-23T01:57:09.174Z,33.37
2018-07-23T01:58:09.380Z,34.04
2018-07-23T01:59:09.527Z,33.94
2018-07-23T02:00:09.718Z,33.56
2018-07-23T02:01:09.899Z,31.53
2018-07-23T02:02:10.081Z,27.90
2018-07-23T02:03:10.270Z,24.16
2018-07-23T02:04:10.456Z,21.95
2018-07-23T02:05:10.643Z,20.12
2018-07-23T02:06:10.827Z,17.44
2018-07-23T02:07:11.008Z,15.81
2018-07-23T02:08:11.199Z,14.95
2018-07-23T02:09:11.397Z,14.37
2018-07-23T02:10:11.589Z,14.28
2018-07-23T02:11:11.750Z,15.23
2018-07-23T02:12:11.939Z,15.23
2018-07-23T02:13:12.123Z,15.33
2018-07-23T02:14:12.311Z,15.81
2018-07-23T02:15:12.508Z,16.48
2018-07-23T02:16:12.700Z,16.67
2018-07-23T02:17:12.860Z,16.58
2018-07-23T02:18:13.083Z,17.35
2018-07-23T02:19:13.229Z,15.72
2018-07-23T02:20:13.403Z,15.81
2018-07-23T02:21:13.595Z,15.43
2018-07-23T02:22:13.779Z,15.23
2018-07-23T02:23:13.964Z,14.95
2018-07-23T02:24:14.151Z,15.33
2018-07-23T02:25:14.351Z,15.72
2018-07-23T02:26:14.530Z,16.39
2018-07-23T02:27:14.705Z,17.15
2018-07-23T02:28:14.901Z,17.54
2018-07-23T02:29:15.090Z,17.63
2018-07-23T02:30:15.269Z,19.17
2018-07-23T02:31:15.472Z,20.61
2018-07-23T02:32:15.639Z,21.37
2018-07-23T02:33:15.854Z,20.32
2018-07-23T02:34:16.040Z,18.69
2018-07-23T02:35:16.224Z,17.72
2018-07-23T02:36:16.412Z,17.25
2018-07-23T02:37:16.595Z,16.67
2018-07-23T02:38:16.782Z,16.48
2018-07-23T02:39:16.976Z,17.15
2018-07-23T02:40:17.151Z,17.15
2018-07-23T02:41:17.346Z,18.11
2018-07-23T02:42:17.535Z,18.30
2018-07-23T02:43:17.739Z,18.98
2018-07-23T02:44:17.922Z,20.32
2018-07-23T02:45:18.107Z,20.89
2018-07-23T02:46:18.295Z,22.61
2018-07-23T02:47:18.476Z,23.00
2018-07-23T02:48:18.672Z,23.48
2018-07-23T02:49:18.856Z,23.67
2018-07-23T02:50:19.048Z,24.43
2018-07-23T02:51:19.258Z,24.82
2018-07-23T02:52:19.450Z,24.82
2018-07-23T02:53:19.634Z,24.62
2018-07-23T02:54:19.819Z,24.54
2018-07-23T02:55:20.002Z,24.73
2018-07-23T02:56:20.186Z,25.11
2018-07-23T02:57:20.375Z,24.90
2018-07-23T02:58:20.579Z,24.43
2018-07-23T02:59:20.733Z,22.61
2018-07-23T03:00:20.920Z,20.59
2018-07-23T03:01:21.104Z,19.45
2018-07-23T03:02:21.296Z,19.45
2018-07-23T03:03:21.484Z,20.59
2018-07-23T03:04:21.686Z,22.80
2018-07-23T03:05:21.861Z,24.73
2018-07-23T03:06:22.083Z,25.57
2018-07-23T03:07:22.254Z,25.86
2018-07-23T03:08:22.444Z,25.48
2018-07-23T03:09:22.648Z,25.57
2018-07-23T03:10:22.854Z,25.57
2018-07-23T03:11:23.016Z,25.10
2018-07-23T03:12:23.193Z,25.19
2018-07-23T03:13:23.361Z,26.53
2018-07-23T03:14:23.560Z,27.59
2018-07-23T03:15:23.732Z,27.39
2018-07-23T03:16:23.913Z,24.33
2018-07-23T03:17:24.116Z,23.08
2018-07-23T03:18:24.296Z,21.55
2018-07-23T03:19:24.484Z,19.25
2018-07-23T03:20:24.654Z,15.42
2018-07-23T03:21:24.863Z,13.49
2018-07-23T03:22:25.066Z,11.58
2018-07-23T03:23:25.216Z,10.63
2018-07-23T03:24:25.409Z,10.72
2018-07-23T03:25:25.599Z,11.01
2018-07-23T03:26:25.770Z,12.26
2018-07-23T03:27:25.970Z,12.83
2018-07-23T03:28:26.145Z,13.79
2018-07-23T03:29:26.329Z,14.84
2018-07-23T03:30:26.527Z,15.51
2018-07-23T03:31:26.689Z,15.41
2018-07-23T03:32:26.876Z,15.33
2018-07-23T03:33:27.061Z,15.80
2018-07-23T03:34:27.246Z,14.94
2018-07-23T03:35:27.432Z,14.84
2018-07-23T03:36:27.620Z,14.75
2018-07-23T03:37:27.805Z,14.84
2018-07-23T03:38:27.992Z,14.84
2018-07-23T03:39:28.171Z,14.75
2018-07-23T03:40:28.361Z,14.65
2018-07-23T03:41:28.550Z,14.84
2018-07-23T03:42:28.766Z,14.56
2018-07-23T03:43:28.899Z,13.41
2018-07-23T03:44:29.103Z,12.93
2018-07-23T03:45:29.281Z,12.35
2018-07-23T03:46:29.464Z,12.06
2018-07-23T03:47:29.648Z,12.84
2018-07-23T03:48:29.819Z,13.31
2018-07-23T03:49:30.022Z,12.74
2018-07-23T03:50:30.210Z,12.26
2018-07-23T03:51:30.408Z,11.11
2018-07-23T03:52:30.582Z,10.72
2018-07-23T03:53:30.761Z,10.35
2018-07-23T03:54:30.944Z,9.86
2018-07-23T03:55:31.133Z,9.48
2018-07-23T03:56:31.330Z,9.48
2018-07-23T03:57:31.491Z,9.29
2018-07-23T03:58:31.668Z,9.96
2018-07-23T03:59:31.861Z,9.67
2018-07-23T04:00:32.039Z,9.96
2018-07-23T04:01:32.221Z,10.06
2018-07-23T04:02:32.405Z,10.64
2018-07-23T04:03:32.648Z,10.72
2018-07-23T04:04:32.778Z,11.21
2018-07-23T04:05:32.956Z,11.59
2018-07-23T04:06:33.147Z,11.97
2018-07-23T04:07:33.352Z,12.26
2018-07-23T04:08:33.539Z,12.36
2018-07-23T04:09:33.742Z,12.65
2018-07-23T04:10:33.901Z,12.93
2018-07-23T04:11:34.087Z,13.60
2018-07-23T04:12:34.266Z,13.99
2018-07-23T04:13:34.466Z,15.05
2018-07-23T04:14:34.640Z,15.43
2018-07-23T04:15:34.844Z,15.62
2018-07-23T04:16:35.019Z,16.77
2018-07-23T04:17:35.279Z,18.11
2018-07-23T04:18:35.422Z,18.78
2018-07-23T04:19:35.596Z,19.26
2018-07-23T04:20:35.798Z,19.17
2018-07-23T04:21:35.979Z,20.22
2018-07-23T04:22:36.170Z,21.47
2018-07-23T04:23:36.355Z,22.24
2018-07-23T04:24:36.540Z,22.61
2018-07-23T04:25:36.720Z,21.95
2018-07-23T04:26:36.908Z,21.95
2018-07-23T04:27:37.112Z,22.04
2018-07-23T04:28:37.277Z,22.05
2018-07-23T04:29:37.459Z,22.63
2018-07-23T04:30:37.642Z,23.78
2018-07-23T04:31:37.826Z,24.26
2018-07-23T04:32:38.005Z,24.55
2018-07-23T04:33:38.193Z,24.35
2018-07-23T04:34:38.378Z,24.74
2018-07-23T04:35:38.565Z,25.41
2018-07-23T04:36:38.773Z,26.46
2018-07-23T04:37:38.964Z,27.71
2018-07-23T04:38:39.147Z,29.24
2018-07-23T04:39:39.326Z,29.82
2018-07-23T04:40:39.513Z,29.44
2018-07-23T04:41:39.700Z,30.11
2018-07-23T04:42:39.887Z,30.87
2018-07-23T04:43:40.072Z,31.07
2018-07-23T04:44:40.259Z,29.82
2018-07-23T04:45:40.437Z,28.39
2018-07-23T04:46:40.620Z,29.16
2018-07-23T04:47:40.822Z,29.74
2018-07-23T04:48:40.975Z,29.93
2018-07-23T04:49:41.156Z,32.42
2018-07-23T04:50:41.435Z,32.71
2018-07-23T04:51:41.539Z,32.04
2018-07-23T04:52:41.724Z,32.52
2018-07-23T04:53:41.904Z,33.58
2018-07-23T04:54:42.098Z,35.40
2018-07-23T04:55:42.297Z,38.68
2018-07-23T04:56:42.529Z,41.27
2018-07-23T04:57:42.641Z,42.61
2018-07-23T04:58:42.831Z,47.71
2018-07-23T04:59:43.019Z,52.79
2018-07-23T05:00:43.216Z,56.18
2018-07-23T05:01:43.376Z,57.52
2018-07-23T05:02:43.572Z,59.16
2018-07-23T05:03:43.765Z,60.21
2018-07-23T05:04:43.953Z,61.65
2018-07-23T05:05:44.153Z,64.34
2018-07-23T05:06:44.345Z,65.97
2018-07-23T05:07:44.531Z,66.26
2018-07-23T05:08:44.819Z,67.54
2018-07-23T05:09:44.890Z,65.27
2018-07-23T05:10:45.077Z,69.50
2018-07-23T05:11:45.264Z,77.04
2018-07-23T05:12:45.472Z,80.83
2018-07-23T05:13:45.645Z,86.35
2018-07-23T05:14:45.834Z,87.03
2018-07-23T05:15:46.021Z,88.57
2018-07-23T05:16:46.192Z,89.00
2018-07-23T05:17:46.370Z,90.83
2018-07-23T05:18:46.569Z,90.11
2018-07-23T05:19:46.761Z,90.44
2018-07-23T05:20:46.944Z,91.69
2018-07-23T05:21:47.133Z,93.62
2018-07-23T05:22:47.323Z,93.19
2018-07-23T05:23:47.555Z,94.06
2018-07-23T05:24:48.210Z,94.06
2018-07-23T05:25:47.890Z,92.90
2018-07-23T05:26:48.071Z,94.24
2018-07-23T05:27:48.265Z,94.00
2018-07-23T05:28:48.460Z,93.81
2018-07-23T05:29:48.647Z,93.91
2018-07-23T05:30:48.844Z,94.44
2018-07-23T05:31:49.037Z,94.39
2018-07-23T05:32:49.206Z,94.87
2018-07-23T05:33:49.403Z,94.68
2018-07-23T05:34:49.592Z,95.26
2018-07-23T05:35:49.780Z,96.46
2018-07-23T05:36:49.966Z,96.12
2018-07-23T05:37:50.159Z,97.67
2018-07-23T05:38:50.346Z,97.28
2018-07-23T05:39:50.538Z,98.05
2018-07-23T05:40:50.730Z,97.33
2018-07-23T05:41:50.913Z,98.00
2018-07-23T05:42:51.128Z,98.00
2018-07-23T05:43:51.292Z,98.39
2018-07-23T05:44:51.487Z,98.54
2018-07-23T05:45:51.680Z,98.88
2018-07-23T05:46:51.859Z,98.34
2018-07-23T05:47:52.053Z,98.83
2018-07-23T05:48:52.243Z,99.45
2018-07-23T05:49:52.433Z,99.35
2018-07-23T05:50:52.630Z,99.93
2018-07-23T05:51:52.859Z,99.93
2018-07-23T05:52:52.994Z,99.69
2018-07-23T05:53:53.212Z,99.69
2018-07-23T05:54:53.401Z,99.84
2018-07-23T05:55:53.591Z,99.64
2018-07-23T05:56:53.791Z,99.21
2018-07-23T05:57:53.986Z,98.82
2018-07-23T05:58:54.203Z,99.50
2018-07-23T05:59:54.373Z,98.29
2018-07-23T06:00:54.571Z,98.82
2018-07-23T06:01:54.781Z,98.58
2018-07-23T06:02:54.978Z,97.96
2018-07-23T06:03:55.177Z,98.00
2018-07-23T06:04:55.367Z,97.96
2018-07-23T06:05:55.547Z,98.15
2018-07-23T06:06:55.859Z,99.35
2018-07-23T06:07:55.956Z,99.21
2018-07-23T06:08:56.146Z,98.34
2018-07-23T06:09:56.334Z,99.99
2018-07-23T06:10:56.545Z,99.26
2018-07-23T06:11:56.737Z,98.68
2018-07-23T06:12:56.923Z,98.93
2018-07-23T06:13:57.114Z,98.88
2018-07-23T06:14:57.312Z,99.36
2018-07-23T06:15:57.508Z,98.88
2018-07-23T06:16:57.703Z,98.97
2018-07-23T06:17:57.899Z,99.84
2018-07-23T06:18:58.097Z,99.99
2018-07-23T06:19:58.300Z,99.99
2018-07-23T06:20:58.491Z,98.73
2018-07-23T06:21:58.703Z,99.31
2018-07-23T06:22:58.877Z,99.60
2018-07-23T06:23:59.060Z,99.99
2018-07-23T06:24:59.248Z,99.99
2018-07-23T06:25:59.436Z,99.99
2018-07-23T06:26:59.671Z,99.99
2018-07-23T06:27:59.874Z,99.99
2018-07-23T06:29:00.064Z,99.16
2018-07-23T06:30:00.286Z,99.46
2018-07-23T06:31:00.473Z,99.99
2018-07-23T06:32:00.665Z,99.55
2018-07-23T06:33:00.874Z,99.84
2018-07-23T06:34:01.055Z,99.74
2018-07-23T06:35:01.248Z,99.99
2018-07-23T06:36:01.441Z,99.89
2018-07-23T06:37:01.634Z,99.60
2018-07-23T06:38:01.819Z,99.99
2018-07-23T06:39:02.027Z,99.99
2018-07-23T06:40:02.243Z,99.99
2018-07-23T06:41:02.450Z,99.80
2018-07-23T06:42:02.643Z,99.70
2018-07-23T06:43:02.824Z,98.49
2018-07-23T06:44:03.034Z,98.35
2018-07-23T06:45:03.246Z,99.99
2018-07-23T06:46:03.449Z,99.55
2018-07-23T06:47:03.643Z,99.60
2018-07-23T06:48:03.831Z,99.99
2018-07-23T06:49:04.044Z,99.17
2018-07-23T06:50:04.243Z,99.99
2018-07-23T06:51:04.444Z,98.49
2018-07-23T06:52:04.644Z,97.38
2018-07-23T06:53:04.841Z,97.33
2018-07-23T06:54:05.078Z,97.81
2018-07-23T06:55:05.241Z,98.15
2018-07-23T06:56:05.449Z,98.83
2018-07-23T06:57:05.621Z,97.42
2018-07-23T06:58:05.808Z,97.52
2018-07-23T07:00:48.730Z,98.20
2018-07-23T07:01:48.927Z,97.91
2018-07-23T07:02:49.123Z,98.39
2018-07-23T07:03:49.322Z,98.54
2018-07-23T07:04:49.521Z,99.99
2018-07-23T07:05:49.722Z,99.99
2018-07-23T07:06:49.920Z,99.99
2018-07-23T07:07:50.119Z,99.99
2018-07-23T07:08:50.314Z,99.99
2018-07-23T07:09:50.515Z,99.99
2018-07-23T07:10:50.753Z,99.99
2018-07-23T07:11:50.925Z,99.99
2018-07-23T07:12:51.112Z,99.99
2018-07-23T07:13:51.306Z,99.99
2018-07-23T07:14:51.498Z,99.99
2018-07-23T07:15:51.705Z,99.99
2018-07-23T07:16:51.903Z,99.99
2018-07-23T07:17:52.103Z,99.99
2018-07-23T07:18:52.303Z,99.99
2018-07-23T07:19:52.594Z,99.99
2018-07-23T07:20:52.707Z,99.99
2018-07-23T07:21:52.906Z,99.99
2018-07-23T07:22:53.103Z,99.99
2018-07-23T07:23:53.300Z,99.99
2018-07-23T07:24:53.497Z,99.99
2018-07-23T07:25:53.696Z,99.99
2018-07-23T07:26:53.893Z,99.99
2018-07-23T07:27:54.097Z,99.99
2018-07-23T07:28:54.299Z,99.99
2018-07-23T07:29:54.489Z,99.99
2018-07-23T07:30:54.689Z,99.99
2018-07-23T07:31:54.888Z,99.99
2018-07-23T07:32:55.087Z,99.99
2018-07-23T07:33:55.285Z,99.99
2018-07-23T07:34:55.485Z,99.99
2018-07-23T07:35:55.688Z,99.99
2018-07-23T07:36:55.880Z,99.99
2018-07-23T07:37:56.117Z,99.99
2018-07-23T07:38:56.278Z,99.99
2018-07-23T07:39:56.481Z,99.99
2018-07-23T07:40:56.675Z,99.99
2018-07-23T07:41:56.873Z,99.99
2018-07-23T07:42:57.064Z,99.99
2018-07-23T07:43:57.265Z,99.99
2018-07-23T07:44:57.466Z,99.17
2018-07-23T07:45:57.662Z,99.80
2018-07-23T07:46:57.862Z,99.99
2018-07-23T07:47:58.061Z,99.32
2018-07-23T07:48:58.261Z,97.71
2018-07-23T07:49:58.458Z,97.37
2018-07-23T07:50:58.662Z,97.18
2018-07-23T07:51:58.869Z,97.47
2018-07-23T07:52:59.065Z,97.33
2018-07-23T07:53:59.260Z,97.38
2018-07-23T07:54:59.453Z,99.22
2018-07-23T07:55:59.655Z,99.22
2018-07-23T07:56:59.860Z,99.32
2018-07-23T07:58:00.050Z,97.86
2018-07-23T07:59:00.260Z,97.28
2018-07-23T08:00:00.453Z,98.05
2018-07-23T08:01:00.657Z,97.47
2018-07-23T08:02:00.859Z,97.28
2018-07-23T08:03:01.055Z,98.39
2018-07-23T08:04:01.254Z,99.99
2018-07-23T08:05:01.453Z,99.80
2018-07-23T08:06:01.641Z,98.88
2018-07-23T08:07:01.868Z,98.58
2018-07-23T08:08:02.055Z,98.58
2018-07-23T08:09:02.253Z,97.03
2018-07-23T08:10:02.453Z,97.66
2018-07-23T08:11:02.672Z,96.06
2018-07-23T08:12:02.873Z,97.52
2018-07-23T08:13:03.062Z,96.64
2018-07-23T08:14:03.262Z,96.11
2018-07-23T08:15:03.464Z,95.92
2018-07-23T08:16:03.654Z,96.50
2018-07-23T08:17:03.851Z,97.18
2018-07-23T08:18:04.051Z,97.18
2018-07-23T08:19:04.246Z,97.52
2018-07-23T08:20:04.450Z,93.54
2018-07-23T08:21:04.645Z,94.99
2018-07-23T08:22:04.845Z,95.24
2018-07-23T08:23:05.033Z,95.09
2018-07-23T08:24:05.234Z,94.99
2018-07-23T08:25:05.445Z,93.92
2018-07-23T08:26:05.630Z,94.84
2018-07-23T08:27:05.827Z,94.11
2018-07-23T08:28:06.025Z,92.22
2018-07-23T08:29:06.224Z,92.36
2018-07-23T08:30:06.423Z,92.11
2018-07-23T08:31:06.619Z,92.02
2018-07-23T08:32:06.873Z,91.15
2018-07-23T08:33:07.017Z,91.54
2018-07-23T08:34:07.213Z,91.54
2018-07-23T08:35:07.411Z,91.20
2018-07-23T08:36:07.607Z,91.93
2018-07-23T08:37:07.834Z,91.25
2018-07-23T08:38:08.006Z,91.20
2018-07-23T08:39:08.204Z,89.69
2018-07-23T08:40:08.398Z,90.47
2018-07-23T08:41:08.606Z,89.59
2018-07-23T08:42:08.804Z,90.18
2018-07-23T08:43:09.060Z,89.64
2018-07-23T08:44:09.197Z,89.74
2018-07-23T08:45:09.405Z,89.45
2018-07-23T08:46:09.602Z,89.54
2018-07-23T08:47:09.801Z,89.54
2018-07-23T08:48:09.998Z,89.49
2018-07-23T08:49:10.194Z,87.84
2018-07-23T08:50:10.397Z,86.52
2018-07-23T08:51:10.640Z,87.29
2018-07-23T08:52:10.794Z,86.76
2018-07-23T08:53:10.991Z,85.10
2018-07-23T08:54:11.190Z,84.05
2018-07-23T08:55:11.383Z,87.10
2018-07-23T08:56:11.611Z,86.47
2018-07-23T08:57:11.776Z,87.79
2018-07-23T08:58:11.973Z,87.70
2018-07-23T08:59:12.209Z,87.45
2018-07-23T09:00:12.392Z,87.25
2018-07-23T09:01:12.591Z,85.31
2018-07-23T09:02:12.812Z,85.99
2018-07-23T09:03:12.988Z,85.69
2018-07-23T09:04:13.178Z,85.83
2018-07-23T09:05:13.374Z,84.77
2018-07-23T09:06:13.573Z,84.38
2018-07-23T09:07:13.762Z,84.33
2018-07-23T09:08:13.972Z,85.07
2018-07-23T09:09:14.162Z,86.33
2018-07-23T09:10:14.359Z,84.88
2018-07-23T09:11:14.559Z,86.49
2018-07-23T09:12:14.755Z,87.81
2018-07-23T09:13:14.948Z,87.51
2018-07-23T09:14:15.143Z,88.64
2018-07-23T09:15:15.343Z,89.22
2018-07-23T09:16:15.543Z,88.15
2018-07-23T09:17:15.747Z,88.93
2018-07-23T09:18:15.933Z,88.93
2018-07-23T09:19:16.123Z,88.73
2018-07-23T09:20:16.324Z,89.22
2018-07-23T09:21:16.532Z,89.65
2018-07-23T09:22:16.728Z,89.50
2018-07-23T09:23:16.926Z,85.66
2018-07-23T09:24:17.123Z,85.07
2018-07-23T09:25:17.308Z,85.02
2018-07-23T09:26:17.500Z,84.30
2018-07-23T09:27:17.693Z,83.37
2018-07-23T09:28:17.896Z,84.01
2018-07-23T09:29:18.085Z,84.70
2018-07-23T09:30:18.318Z,85.61
2018-07-23T09:31:18.481Z,85.71
2018-07-23T09:32:18.675Z,84.64
2018-07-23T09:33:18.882Z,83.42
2018-07-23T09:34:19.076Z,83.26
2018-07-23T09:35:19.277Z,83.22
2018-07-23T09:36:19.474Z,83.81
2018-07-23T09:37:19.670Z,83.51
2018-07-23T09:38:19.866Z,84.05
2018-07-23T09:39:20.061Z,83.31
2018-07-23T09:40:20.254Z,82.82
2018-07-23T09:41:20.451Z,81.56
2018-07-23T09:42:20.638Z,82.14
2018-07-23T09:43:20.831Z,81.75
2018-07-23T09:44:21.025Z,82.10
2018-07-23T09:45:21.220Z,80.83
2018-07-23T09:46:21.416Z,81.90
2018-07-23T09:47:21.612Z,81.22
2018-07-23T09:48:21.808Z,81.12
2018-07-23T09:49:22.004Z,83.36
2018-07-23T09:50:22.181Z,82.58
2018-07-23T09:51:22.417Z,81.02
2018-07-23T09:52:22.602Z,81.75
2018-07-23T09:53:22.803Z,80.62
2018-07-23T09:54:23.005Z,79.74
2018-07-23T09:55:23.168Z,79.12
2018-07-23T09:56:23.387Z,79.64
2018-07-23T09:57:23.581Z,80.33
2018-07-23T09:58:23.767Z,78.38
2018-07-23T09:59:23.979Z,79.84
2018-07-23T10:00:24.147Z,78.38
2018-07-23T10:01:24.358Z,78.58
2018-07-23T10:02:24.560Z,79.12
2018-07-23T10:03:24.767Z,77.47
2018-07-23T10:04:24.931Z,78.11
2018-07-23T10:05:25.135Z,78.46
2018-07-23T10:06:25.327Z,79.55
2018-07-23T10:07:25.512Z,79.78
2018-07-23T10:08:25.692Z,80.07
2018-07-23T10:09:25.897Z,80.81
2018-07-23T10:10:26.092Z,80.52
2018-07-23T10:11:26.287Z,80.71
2018-07-23T10:12:26.497Z,80.71
2018-07-23T10:13:26.731Z,80.87
2018-07-23T10:14:26.927Z,80.29
2018-07-23T10:15:27.108Z,81.20
2018-07-23T10:18:10.015Z,80.42
2018-07-23T10:19:10.215Z,81.30
2018-07-23T10:20:10.415Z,80.13
2018-07-23T10:21:10.612Z,80.36
2018-07-23T10:22:10.820Z,79.00
2018-07-23T10:23:10.994Z,79.43
2018-07-23T10:24:11.193Z,79.53
2018-07-23T10:25:11.391Z,76.55
2018-07-23T10:26:11.584Z,75.09
2018-07-23T10:27:11.782Z,74.16
2018-07-23T10:28:11.971Z,74.06
2018-07-23T10:29:12.168Z,72.80
2018-07-23T10:30:12.366Z,71.88
2018-07-23T10:31:12.553Z,70.95
2018-07-23T10:32:12.747Z,70.75
2018-07-23T10:33:12.943Z,69.71
2018-07-23T10:34:13.118Z,68.12
2018-07-23T10:35:13.375Z,68.90
2018-07-23T10:36:13.500Z,68.80
2018-07-23T10:37:13.697Z,68.71
2018-07-23T10:38:13.891Z,69.13
2018-07-23T10:39:14.091Z,67.96
2018-07-23T10:40:14.284Z,67.80
2018-07-23T10:41:14.492Z,68.13
2018-07-23T10:42:14.679Z,65.82
2018-07-23T10:43:14.869Z,66.93
2018-07-23T10:44:15.071Z,66.73
2018-07-23T10:45:15.263Z,64.90
2018-07-23T10:46:15.456Z,61.98
2018-07-23T10:47:15.645Z,61.88
2018-07-23T10:48:15.852Z,62.05
2018-07-23T10:49:16.034Z,63.41
2018-07-23T10:50:16.220Z,62.53
2018-07-23T10:51:16.418Z,63.02
2018-07-23T10:52:16.630Z,62.24
2018-07-23T10:53:16.818Z,63.54
2018-07-23T10:54:17.014Z,61.49
2018-07-23T10:55:17.222Z,62.34
2018-07-23T10:56:17.427Z,62.89
2018-07-23T10:57:17.704Z,62.96
2018-07-23T10:58:17.908Z,63.90
2018-07-23T10:59:18.107Z,64.20
2018-07-23T11:00:18.297Z,64.72
2018-07-23T11:01:18.509Z,63.93
2018-07-23T11:02:18.692Z,64.13
2018-07-23T11:03:18.890Z,63.74
2018-07-23T11:04:19.131Z,63.45
2018-07-23T11:05:19.279Z,64.29
2018-07-23T11:06:19.476Z,64.84
2018-07-23T11:07:19.709Z,65.17
2018-07-23T11:08:19.851Z,66.14
2018-07-23T11:09:20.039Z,64.29
2018-07-23T11:10:20.237Z,63.32
2018-07-23T11:11:20.426Z,62.73
2018-07-23T11:12:20.622Z,63.71
2018-07-23T11:13:20.803Z,63.12
2018-07-23T11:14:21.000Z,63.48
2018-07-23T11:15:21.195Z,63.81
2018-07-23T11:16:21.390Z,63.32
2018-07-23T11:17:21.585Z,64.20
2018-07-23T11:18:21.768Z,62.76
2018-07-23T11:19:22.073Z,61.50
2018-07-23T11:20:22.167Z,61.40
2018-07-23T11:21:22.380Z,61.60
2018-07-23T11:22:22.531Z,61.79
2018-07-23T11:23:22.731Z,63.61
2018-07-23T11:24:22.924Z,64.17
2018-07-23T11:25:38.979Z,65.43
2018-07-23T11:26:23.331Z,64.52
2018-07-23T11:27:23.508Z,62.90
2018-07-23T11:28:23.744Z,65.23
2018-07-23T11:29:23.939Z,62.54
2018-07-23T11:30:24.141Z,59.72
2018-07-23T11:31:24.344Z,58.64
2018-07-23T11:32:24.560Z,59.10
2018-07-23T11:33:24.783Z,59.30
2018-07-23T11:34:24.970Z,58.71
2018-07-23T11:35:25.166Z,59.10
2018-07-23T11:36:25.397Z,59.49
2018-07-23T11:37:25.549Z,59.10
2018-07-23T11:38:25.759Z,58.71
2018-07-23T11:39:25.992Z,58.13
2018-07-23T11:40:26.156Z,59.03
2018-07-23T11:41:26.357Z,59.81
2018-07-23T11:42:26.535Z,59.72
2018-07-23T11:43:26.726Z,59.64
2018-07-23T11:44:26.924Z,58.67
2018-07-23T11:45:27.129Z,59.35
2018-07-23T11:46:27.341Z,59.84
2018-07-23T11:47:27.541Z,59.91
2018-07-23T11:48:27.734Z,59.94
2018-07-23T11:49:27.948Z,60.03
2018-07-23T11:50:28.103Z,60.42
2018-07-23T11:51:28.309Z,59.13
2018-07-23T11:52:28.490Z,59.33
2018-07-23T11:53:28.753Z,60.10
2018-07-23T11:54:28.877Z,61.08
2018-07-23T11:55:29.064Z,62.05
2018-07-23T11:56:29.269Z,61.27
2018-07-23T11:57:29.434Z,61.76
2018-07-23T11:58:29.637Z,62.25
2018-07-23T11:59:29.824Z,64.39
2018-07-23T12:00:30.011Z,64.39
2018-07-23T12:01:30.222Z,64.59
2018-07-23T12:02:30.411Z,64.84
2018-07-23T12:03:30.668Z,64.26
2018-07-23T12:04:30.888Z,64.55
2018-07-23T12:05:31.048Z,65.43
2018-07-23T12:06:31.239Z,65.53
2018-07-23T12:07:31.421Z,64.36
2018-07-23T12:08:31.616Z,64.17
2018-07-23T12:09:31.808Z,64.84
2018-07-23T12:10:32.000Z,64.65
2018-07-23T12:11:32.199Z,64.62
2018-07-23T12:12:32.391Z,65.20
2018-07-23T12:13:32.605Z,65.20
2018-07-23T12:14:32.836Z,65.27
2018-07-23T12:15:33.053Z,65.46
2018-07-23T12:16:33.251Z,65.66
2018-07-23T12:17:33.458Z,65.17
2018-07-23T12:18:33.639Z,65.08
2018-07-23T12:19:33.833Z,65.08
2018-07-23T12:20:34.026Z,65.27
2018-07-23T12:21:34.225Z,64.98
2018-07-23T12:22:34.433Z,65.37
2018-07-23T12:23:34.653Z,66.24
2018-07-23T12:24:34.841Z,65.27
2018-07-23T12:25:35.041Z,66.53
2018-07-23T12:26:35.228Z,66.73
2018-07-23T12:27:35.440Z,66.83
2018-07-23T12:28:35.639Z,66.05
2018-07-23T12:29:35.834Z,66.14
2018-07-23T12:30:36.018Z,66.86
2018-07-23T12:31:36.309Z,67.18
2018-07-23T12:32:36.464Z,65.43
2018-07-23T12:33:36.671Z,64.36
2018-07-23T12:34:36.876Z,64.45
2018-07-23T12:35:37.072Z,64.69
2018-07-23T12:36:37.262Z,64.55
2018-07-23T12:37:37.441Z,65.36
2018-07-23T12:38:37.644Z,64.59
2018-07-23T12:39:37.871Z,64.23
2018-07-23T12:40:38.016Z,62.31
2018-07-23T12:41:38.222Z,62.79
2018-07-23T12:42:38.449Z,60.46
2018-07-23T12:43:38.636Z,62.12
2018-07-23T12:44:38.821Z,63.18
2018-07-23T12:45:39.012Z,61.82
2018-07-23T12:46:39.205Z,61.69
2018-07-23T12:47:39.396Z,61.89
2018-07-23T12:48:39.589Z,62.70
2018-07-23T12:49:39.778Z,62.24
2018-07-23T12:52:22.687Z,60.22
2018-07-23T12:53:22.897Z,59.93
2018-07-23T12:54:23.093Z,59.61
2018-07-23T12:55:23.294Z,58.83
2018-07-23T12:56:23.491Z,58.44
2018-07-23T12:57:23.683Z,57.95
2018-07-23T12:58:23.879Z,58.73
2018-07-23T12:59:24.075Z,59.61
2018-07-23T13:00:24.272Z,59.05